createdAt,value
2022-08-17T00:01:51.879Z,97460.94
2022-08-17T00:04:22.856Z,97459.38
2022-08-17T00:06:53.542Z,97456.97
2022-08-17T00:09:23.567Z,97460.75
2022-08-17T00:12:41.925Z,97461.78
2022-08-17T00:14:46.977Z,97454.28
2022-08-17T00:17:17.036Z,97446.53
2022-08-17T00:19:47.077Z,97449.28
2022-08-17T00:22:35.207Z,97439.28
2022-08-17T00:25:09.853Z,97443.16
2022-08-17T00:27:43.121Z,97440.28
2022-08-17T00:30:16.588Z,97442.66
2022-08-17T00:33:23.451Z,97435.16
2022-08-17T00:35:41.980Z,97433.31
2022-08-17T00:38:12.816Z,97435.41
2022-08-17T00:40:45.765Z,97431.22
2022-08-17T00:43:24.172Z,97433.81
2022-08-17T00:45:54.322Z,97425.56
2022-08-17T00:48:29.921Z,97421.72
2022-08-17T00:51:13.429Z,97427.63
2022-08-17T00:53:50.382Z,97429.38
2022-08-17T00:56:27.912Z,97431.19
2022-08-17T00:59:01.017Z,97433.72
2022-08-17T01:01:32.174Z,97424.44
2022-08-17T01:04:05.188Z,97432.63
2022-08-17T01:06:36.619Z,97427.41
2022-08-17T01:09:08.728Z,97424.56
2022-08-17T01:11:40.642Z,97426.31
2022-08-17T01:14:13.706Z,97427.34
2022-08-17T01:16:43.773Z,97423.25
2022-08-17T01:19:23.906Z,97420.19
2022-08-17T01:22:03.933Z,97415.75
2022-08-17T01:24:38.780Z,97413.16
2022-08-17T01:27:10.484Z,97421.38
2022-08-17T01:29:46.457Z,97416.47
2022-08-17T01:32:18.029Z,97422.66
2022-08-17T01:34:50.998Z,97425.16
2022-08-17T01:37:24.054Z,97426.75
2022-08-17T01:40:02.972Z,97428.22
2022-08-17T01:42:42.637Z,97424.13
2022-08-17T01:45:19.481Z,97423.47
2022-08-17T01:47:49.605Z,97422.56
2022-08-17T01:50:25.361Z,97428.03
2022-08-17T01:53:02.669Z,97422.84
2022-08-17T01:55:42.765Z,97430.44
2022-08-17T01:58:12.923Z,97431.97
2022-08-17T02:00:51.734Z,97430.44
2022-08-17T02:03:32.952Z,97421.88
2022-08-17T02:06:03.325Z,97423.63
2022-08-17T02:08:39.191Z,97431.75
2022-08-17T02:11:25.626Z,97432.84
2022-08-17T02:14:02.516Z,97431.25
2022-08-17T02:16:36.962Z,97436.88
2022-08-17T02:19:10.895Z,97432.16
2022-08-17T02:21:42.978Z,97437.97
2022-08-17T02:24:19.511Z,97437.13
2022-08-17T02:27:12.111Z,97436.19
2022-08-17T02:29:42.175Z,97441.66
2022-08-17T02:32:27.665Z,97438.56
2022-08-17T02:34:59.394Z,97433.97
2022-08-17T02:37:30.538Z,97435.84
2022-08-17T02:40:01.403Z,97433.59
2022-08-17T02:42:38.453Z,97435.19
2022-08-17T02:45:13.479Z,97441.31
2022-08-17T02:47:44.345Z,97431.97
2022-08-17T02:50:18.876Z,97435.03
2022-08-17T02:53:02.306Z,97449.94
2022-08-17T02:55:36.747Z,97437.06
2022-08-17T02:58:10.591Z,97442.72
2022-08-17T03:00:47.045Z,97446.53
2022-08-17T03:03:21.191Z,97448.84
2022-08-17T03:05:53.791Z,97448.13
2022-08-17T03:08:25.568Z,97450.81
2022-08-17T03:10:56.054Z,97440.63
2022-08-17T03:13:30.817Z,97446.59
2022-08-17T03:16:00.843Z,97450.00
2022-08-17T03:18:30.962Z,97449.19
2022-08-17T03:21:04.603Z,97449.81
2022-08-17T03:23:40.964Z,97451.53
2022-08-17T03:26:12.271Z,97441.31
2022-08-17T03:28:47.998Z,97447.22
2022-08-17T03:31:18.464Z,97452.44
2022-08-17T03:33:48.422Z,97445.72
2022-08-17T03:36:18.402Z,97451.34
2022-08-17T03:38:48.397Z,97461.03
2022-08-17T03:41:21.220Z,97454.31
2022-08-17T03:43:53.835Z,97456.97
2022-08-17T03:46:36.406Z,97458.22
2022-08-17T03:49:22.147Z,97462.59
2022-08-17T03:52:04.619Z,97473.34
2022-08-17T03:54:47.352Z,97470.13
2022-08-17T03:57:19.223Z,97477.09
2022-08-17T03:59:52.391Z,97484.50
2022-08-17T04:02:27.049Z,97484.81
2022-08-17T04:04:57.190Z,97484.88
2022-08-17T04:07:32.656Z,97502.41
2022-08-17T04:10:02.718Z,97505.91
2022-08-17T04:12:46.842Z,97513.25
2022-08-17T04:15:20.122Z,97506.59
2022-08-17T04:17:50.675Z,97502.78
2022-08-17T04:20:24.448Z,97494.41
2022-08-17T04:23:04.933Z,97500.25
2022-08-17T04:25:38.006Z,97506.88
2022-08-17T04:28:15.551Z,97507.94
2022-08-17T04:30:50.223Z,97498.13
2022-08-17T04:33:24.680Z,97505.75
2022-08-17T04:35:58.083Z,97509.81
2022-08-17T04:38:31.053Z,97520.09
2022-08-17T04:41:15.024Z,97523.03
2022-08-17T04:43:48.697Z,97520.22
2022-08-17T04:46:24.904Z,97523.50
2022-08-17T04:48:59.023Z,97533.88
2022-08-17T04:51:33.978Z,97529.00
2022-08-17T04:54:08.246Z,97537.31
2022-08-17T04:56:39.011Z,97536.94
2022-08-17T04:59:15.489Z,97541.75
2022-08-17T05:01:51.043Z,97549.03
2022-08-17T05:04:34.361Z,97554.53
2022-08-17T05:07:05.925Z,97561.28
2022-08-17T05:09:35.904Z,97568.63
2022-08-17T05:12:07.343Z,97568.72
2022-08-17T05:14:37.359Z,97571.75
2022-08-17T05:17:11.270Z,97554.16
2022-08-17T05:19:41.732Z,97555.09
2022-08-17T05:22:11.694Z,97556.66
2022-08-17T05:24:43.773Z,97549.94
2022-08-17T05:27:23.701Z,97546.88
2022-08-17T05:29:53.715Z,97544.56
2022-08-17T05:32:37.366Z,97540.16
2022-08-17T05:35:11.676Z,97543.31
2022-08-17T05:37:41.744Z,97535.75
2022-08-17T05:40:13.180Z,97546.19
2022-08-17T05:42:43.677Z,97549.13
2022-08-17T05:45:15.743Z,97550.81
2022-08-17T05:47:50.425Z,97551.09
2022-08-17T05:50:31.266Z,97550.91
2022-08-17T05:53:16.289Z,97558.41
2022-08-17T05:55:58.045Z,97567.75
2022-08-17T05:58:40.229Z,97574.00
2022-08-17T06:01:19.980Z,97568.84
2022-08-17T06:04:00.471Z,97580.06
2022-08-17T06:06:44.824Z,97570.88
2022-08-17T06:09:33.979Z,97583.06
2022-08-17T06:12:23.130Z,97586.72
2022-08-17T06:15:24.670Z,97593.97
2022-08-17T06:18:01.182Z,97594.75
2022-08-17T06:20:48.199Z,97594.91
2022-08-17T06:23:28.082Z,97593.03
2022-08-17T06:26:06.639Z,97597.22
2022-08-17T06:28:46.396Z,97598.75
2022-08-17T06:31:29.328Z,97605.25
2022-08-17T06:34:03.119Z,97601.22
2022-08-17T06:36:58.285Z,97591.78
2022-08-17T06:39:47.609Z,97597.50
2022-08-17T06:42:55.018Z,97597.22
2022-08-17T06:45:32.695Z,97609.53
2022-08-17T06:48:13.523Z,97603.97
2022-08-17T06:50:53.833Z,97610.47
2022-08-17T06:53:34.697Z,97610.31
2022-08-17T06:56:11.642Z,97602.63
2022-08-17T06:58:45.959Z,97605.53
2022-08-17T07:01:24.345Z,97598.31
2022-08-17T07:04:05.178Z,97587.03
2022-08-17T07:06:51.909Z,97589.00
2022-08-17T07:09:32.123Z,97591.97
2022-08-17T07:12:12.761Z,97592.84
2022-08-17T07:14:52.348Z,97581.75
2022-08-17T07:17:46.461Z,97581.34
2022-08-17T07:20:25.198Z,97592.31
2022-08-17T07:23:08.692Z,97578.00
2022-08-17T07:25:41.335Z,97585.84
2022-08-17T07:28:13.026Z,97576.50
2022-08-17T07:30:50.912Z,97578.91
2022-08-17T07:33:29.609Z,97587.06
2022-08-17T07:36:01.676Z,97582.09
2022-08-17T07:38:35.601Z,97577.78
2022-08-17T07:41:12.646Z,97577.31
2022-08-17T07:43:52.987Z,97568.13
2022-08-17T07:46:38.231Z,97575.50
2022-08-17T07:49:40.421Z,97578.31
2022-08-17T07:52:47.682Z,97584.94
2022-08-17T07:55:03.483Z,97586.53
2022-08-17T07:57:40.376Z,97585.41
2022-08-17T08:00:24.369Z,97581.31
2022-08-17T08:03:27.265Z,97589.28
2022-08-17T08:06:06.220Z,97589.53
2022-08-17T08:08:43.309Z,97595.13
2022-08-17T08:11:18.127Z,97588.13
2022-08-17T08:13:50.724Z,97589.59
2022-08-17T08:16:31.837Z,97590.91
2022-08-17T08:19:04.574Z,97595.34
2022-08-17T08:21:50.576Z,97604.34
2022-08-17T08:24:53.609Z,97601.91
2022-08-17T08:27:40.155Z,97605.56
2022-08-17T08:30:18.363Z,97611.47
2022-08-17T08:33:10.612Z,97605.53
2022-08-17T08:35:49.144Z,97602.44
2022-08-17T08:38:36.772Z,97610.00
2022-08-17T08:41:39.724Z,97613.41
2022-08-17T08:44:59.473Z,97616.31
2022-08-17T08:47:45.150Z,97619.22
2022-08-17T08:50:37.078Z,97634.44
2022-08-17T08:53:23.634Z,97632.09
2022-08-17T08:56:02.706Z,97623.22
2022-08-17T08:58:45.211Z,97625.53
2022-08-17T09:01:24.068Z,97623.09
2022-08-17T09:04:44.929Z,97619.81
2022-08-17T09:07:36.597Z,97622.94
2022-08-17T09:10:18.360Z,97626.34
2022-08-17T09:13:09.260Z,97616.22
2022-08-17T09:15:47.805Z,97622.97
2022-08-17T09:19:01.090Z,97620.47
2022-08-17T09:21:29.688Z,97628.56
2022-08-17T09:24:13.067Z,97633.06
2022-08-17T09:26:51.464Z,97641.84
2022-08-17T09:29:24.520Z,97652.59
2022-08-17T09:31:59.701Z,97652.47
2022-08-17T09:34:40.660Z,97647.06
2022-08-17T09:37:28.414Z,97650.16
2022-08-17T09:40:18.228Z,97654.19
2022-08-17T09:42:52.977Z,97654.84
2022-08-17T09:45:34.672Z,97658.41
2022-08-17T09:48:14.811Z,97659.47
2022-08-17T09:51:05.724Z,97660.84
2022-08-17T09:53:40.766Z,97657.94
2022-08-17T09:56:31.862Z,97661.06
2022-08-17T09:59:27.581Z,97649.34
2022-08-17T10:02:42.944Z,97654.13
2022-08-17T10:05:23.777Z,97654.78
2022-08-17T10:08:08.703Z,97642.03
2022-08-17T10:10:58.817Z,97654.41
2022-08-17T10:13:52.717Z,97655.59
2022-08-17T10:16:35.446Z,97661.28
2022-08-17T10:19:18.694Z,97675.44
2022-08-17T10:22:14.667Z,97661.19
2022-08-17T10:25:22.824Z,97679.16
2022-08-17T10:28:03.483Z,97670.63
2022-08-17T10:30:40.577Z,97678.75
2022-08-17T10:33:20.310Z,97684.91
2022-08-17T10:36:08.735Z,97695.34
2022-08-17T10:38:48.698Z,97683.31
2022-08-17T10:41:32.572Z,97687.13
2022-08-17T10:44:39.396Z,97703.47
2022-08-17T10:47:14.547Z,97720.13
2022-08-17T10:49:49.649Z,97718.94
2022-08-17T10:52:55.146Z,97717.19
2022-08-17T10:55:25.854Z,97721.00
2022-08-17T10:58:24.727Z,97720.91
2022-08-17T11:01:03.860Z,97717.72
2022-08-17T11:03:34.904Z,97716.53
2022-08-17T11:06:20.312Z,97709.13
2022-08-17T11:09:29.023Z,97712.84
2022-08-17T11:12:21.972Z,97710.03
2022-08-17T11:15:12.653Z,97710.34
2022-08-17T11:18:41.170Z,97712.91
2022-08-17T11:21:47.696Z,97719.78
2022-08-17T11:24:24.187Z,97724.50
2022-08-17T11:27:12.187Z,97729.06
2022-08-17T11:29:59.536Z,97729.00
2022-08-17T11:32:47.129Z,97728.09
2022-08-17T11:35:47.187Z,97732.75
2022-08-17T11:38:29.142Z,97728.84
2022-08-17T11:41:29.043Z,97724.44
2022-08-17T11:44:41.278Z,97735.09
2022-08-17T11:47:38.433Z,97737.03
2022-08-17T11:51:03.701Z,97730.69
2022-08-17T11:54:32.348Z,97743.53
2022-08-17T11:57:40.359Z,97738.19
2022-08-17T12:00:56.468Z,97734.38
2022-08-17T12:03:53.787Z,97741.69
2022-08-17T12:06:45.037Z,97743.19
2022-08-17T12:09:21.645Z,97733.81
2022-08-17T12:12:13.287Z,97724.38
2022-08-17T12:15:09.617Z,97720.13
2022-08-17T12:17:48.436Z,97699.22
2022-08-17T12:20:27.933Z,97706.22
2022-08-17T12:23:09.624Z,97713.81
2022-08-17T12:25:47.717Z,97704.91
2022-08-17T12:28:30.363Z,97700.47
2022-08-17T12:31:06.556Z,97693.28
2022-08-17T12:33:46.110Z,97682.97
2022-08-17T12:36:21.612Z,97670.38
2022-08-17T12:39:04.614Z,97675.78
2022-08-17T12:41:48.095Z,97679.16
2022-08-17T12:44:24.121Z,97677.88
2022-08-17T12:47:04.711Z,97670.94
2022-08-17T12:49:42.457Z,97668.22
2022-08-17T12:52:19.989Z,97668.13
2022-08-17T12:55:00.037Z,97663.25
2022-08-17T12:57:35.167Z,97659.19
2022-08-17T13:00:17.508Z,97644.13
2022-08-17T13:02:53.580Z,97632.25
2022-08-17T13:05:34.100Z,97616.97
2022-08-17T13:08:07.400Z,97624.06
2022-08-17T13:10:39.716Z,97622.69
2022-08-17T13:13:23.952Z,97612.22
2022-08-17T13:16:01.172Z,97610.19
2022-08-17T13:18:44.946Z,97607.38
2022-08-17T13:21:30.659Z,97610.88
2022-08-17T13:24:05.015Z,97599.94
2022-08-17T13:26:40.822Z,97603.72
2022-08-17T13:29:24.576Z,97597.19
2022-08-17T13:32:04.271Z,97592.78
2022-08-17T13:35:12.362Z,97590.66
2022-08-17T13:37:38.605Z,97594.69
2022-08-17T13:40:34.602Z,97591.97
2022-08-17T13:43:06.861Z,97583.78
2022-08-17T13:45:55.713Z,97590.47
2022-08-17T13:48:32.094Z,97591.34
2022-08-17T13:51:29.581Z,97589.69
2022-08-17T13:54:24.128Z,97589.00
2022-08-17T13:57:02.915Z,97590.81
2022-08-17T13:59:54.332Z,97585.75
2022-08-17T14:02:28.742Z,97578.63
2022-08-17T14:05:02.096Z,97572.41
2022-08-17T14:07:40.771Z,97562.38
2022-08-17T14:10:17.858Z,97553.25
2022-08-17T14:12:50.250Z,97550.53
2022-08-17T14:15:55.695Z,97544.75
2022-08-17T14:18:50.526Z,97535.88
2022-08-17T14:21:11.362Z,97527.63
2022-08-17T14:23:42.070Z,97522.53
2022-08-17T14:26:21.774Z,97517.59
2022-08-17T14:28:56.644Z,97514.66
2022-08-17T14:31:27.654Z,97518.34
2022-08-17T14:33:58.903Z,97527.63
2022-08-17T14:36:31.301Z,97525.47
2022-08-17T14:39:01.313Z,97536.84
2022-08-17T14:41:34.329Z,97530.69
2022-08-17T14:44:04.507Z,97524.44
2022-08-17T14:46:35.417Z,97526.28
2022-08-17T14:49:05.421Z,97518.66
2022-08-17T14:51:35.525Z,97514.09
2022-08-17T14:54:32.849Z,97526.69
2022-08-17T14:57:24.528Z,97527.06
2022-08-17T14:59:59.293Z,97518.34
2022-08-17T15:02:31.204Z,97530.47
2022-08-17T15:05:03.128Z,97525.19
2022-08-17T15:07:33.557Z,97529.72
2022-08-17T15:10:04.519Z,97524.38
2022-08-17T15:12:39.465Z,97527.94
2022-08-17T15:15:13.204Z,97530.81
2022-08-17T15:17:46.034Z,97534.63
2022-08-17T15:20:21.005Z,97529.31
2022-08-17T15:22:55.295Z,97526.34
2022-08-17T15:25:27.561Z,97521.56
2022-08-17T15:28:00.766Z,97523.22
2022-08-17T15:30:31.156Z,97522.28
2022-08-17T15:33:03.203Z,97508.66
2022-08-17T15:35:36.285Z,97505.63
2022-08-17T15:38:12.156Z,97507.56
2022-08-17T15:40:46.553Z,97511.13
2022-08-17T15:43:27.380Z,97508.00
2022-08-17T15:46:04.054Z,97500.78
2022-08-17T15:48:46.182Z,97505.38
2022-08-17T15:51:20.762Z,97512.25
2022-08-17T15:53:55.016Z,97502.94
2022-08-17T15:56:26.175Z,97504.63
2022-08-17T15:58:58.914Z,97495.06
2022-08-17T16:02:21.543Z,97489.38
2022-08-17T16:04:30.106Z,97489.13
2022-08-17T16:07:01.656Z,97486.03
2022-08-17T16:09:31.675Z,97479.13
2022-08-17T16:12:11.429Z,97488.63
2022-08-17T16:14:44.024Z,97485.06
2022-08-17T16:17:38.733Z,97483.22
2022-08-17T16:20:04.395Z,97480.69
2022-08-17T16:22:39.020Z,97481.16
2022-08-17T16:25:13.866Z,97473.28
2022-08-17T16:27:44.075Z,97473.41
2022-08-17T16:30:18.634Z,97471.31
2022-08-17T16:32:51.501Z,97470.13
2022-08-17T16:35:27.096Z,97469.09
2022-08-17T16:38:00.998Z,97469.31
2022-08-17T16:40:35.714Z,97463.44
2022-08-17T16:43:12.134Z,97456.84
2022-08-17T16:45:47.537Z,97465.41
2022-08-17T16:48:21.423Z,97461.56
2022-08-17T16:51:03.678Z,97461.22
2022-08-17T16:53:34.963Z,97465.63
2022-08-17T16:56:05.145Z,97467.47
2022-08-17T16:58:35.862Z,97463.59
2022-08-17T17:01:10.034Z,97466.16
2022-08-17T17:03:43.866Z,97465.63
2022-08-17T17:06:25.728Z,97459.38
2022-08-17T17:09:03.547Z,97459.75
2022-08-17T17:11:42.958Z,97456.59
2022-08-17T17:14:19.779Z,97455.81
2022-08-17T17:17:04.419Z,97458.31
2022-08-17T17:19:41.340Z,97463.13
2022-08-17T17:22:22.300Z,97470.72
2022-08-17T17:25:08.847Z,97465.19
2022-08-17T17:27:48.508Z,97468.59
2022-08-17T17:30:27.292Z,97473.22
2022-08-17T17:33:07.652Z,97466.91
2022-08-17T17:35:50.667Z,97460.94
2022-08-17T17:38:29.221Z,97460.63
2022-08-17T17:41:07.288Z,97459.59
2022-08-17T17:43:40.353Z,97462.31
2022-08-17T17:46:27.504Z,97452.94
2022-08-17T17:49:02.099Z,97450.63
2022-08-17T17:52:07.690Z,97457.72
2022-08-17T17:54:54.106Z,97451.72
2022-08-17T17:57:42.118Z,97459.84
2022-08-17T18:00:19.673Z,97450.75
2022-08-17T18:03:07.212Z,97451.97
2022-08-17T18:06:01.875Z,97450.53
2022-08-17T18:08:55.516Z,97446.97
2022-08-17T18:12:01.158Z,97456.50
2022-08-17T18:14:49.530Z,97460.69
2022-08-17T18:17:20.712Z,97464.03
2022-08-17T18:19:50.688Z,97459.19
2022-08-17T18:22:25.583Z,97458.84
2022-08-17T18:24:58.876Z,97449.72
2022-08-17T18:27:39.404Z,97453.66
2022-08-17T18:30:30.354Z,97455.44
2022-08-17T18:33:26.888Z,97451.59
2022-08-17T18:35:59.253Z,97452.13
2022-08-17T18:38:36.869Z,97467.44
2022-08-17T18:41:24.420Z,97462.66
2022-08-17T18:44:05.464Z,97468.66
2022-08-17T18:46:40.135Z,97474.13
2022-08-17T18:49:29.955Z,97476.28
2022-08-17T18:52:18.097Z,97471.38
2022-08-17T18:55:11.316Z,97482.00
2022-08-17T18:57:46.005Z,97476.59
2022-08-17T19:00:21.481Z,97483.16
2022-08-17T19:02:58.512Z,97486.75
2022-08-17T19:05:37.914Z,97490.31
2022-08-17T19:08:26.648Z,97500.38
2022-08-17T19:11:04.232Z,97504.50
2022-08-17T19:13:41.403Z,97509.63
2022-08-17T19:16:21.329Z,97507.69
2022-08-17T19:19:00.115Z,97509.44
2022-08-17T19:21:40.376Z,97503.34
2022-08-17T19:24:19.473Z,97500.94
2022-08-17T19:27:01.655Z,97510.06
2022-08-17T19:29:50.181Z,97508.81
2022-08-17T19:32:25.939Z,97509.41
2022-08-17T19:34:57.696Z,97517.78
2022-08-17T19:37:40.190Z,97513.44
2022-08-17T19:40:50.949Z,97501.50
2022-08-17T19:43:33.276Z,97485.56
2022-08-17T19:46:15.694Z,97478.75
2022-08-17T19:48:59.410Z,97487.69
2022-08-17T19:51:41.818Z,97486.16
2022-08-17T19:54:24.830Z,97492.44
2022-08-17T19:57:05.245Z,97496.66
2022-08-17T19:59:56.509Z,97490.88
2022-08-17T20:02:44.256Z,97491.44
2022-08-17T20:05:19.811Z,97485.47
2022-08-17T20:08:00.619Z,97480.66
2022-08-17T20:10:45.248Z,97485.44
2022-08-17T20:13:32.822Z,97489.38
2022-08-17T20:16:09.944Z,97500.47
2022-08-17T20:18:51.298Z,97506.72
2022-08-17T20:21:29.087Z,97506.53
2022-08-17T20:24:15.784Z,97505.41
2022-08-17T20:26:58.517Z,97504.69
2022-08-17T20:29:40.141Z,97492.78
2022-08-17T20:32:29.360Z,97501.97
2022-08-17T20:35:22.613Z,97501.78
2022-08-17T20:38:01.981Z,97505.19
2022-08-17T20:40:39.400Z,97502.66
2022-08-17T20:43:52.247Z,97504.69
2022-08-17T20:46:59.601Z,97502.81
2022-08-17T20:49:50.811Z,97513.22
2022-08-17T20:52:49.480Z,97521.25
2022-08-17T20:55:54.790Z,97535.56
2022-08-17T20:58:49.409Z,97536.78
2022-08-17T21:01:39.616Z,97543.66
2022-08-17T21:04:46.359Z,97540.44
2022-08-17T21:07:48.704Z,97550.75
2022-08-17T21:10:32.042Z,97560.03
2022-08-17T21:13:39.888Z,97553.72
2022-08-17T21:16:33.407Z,97549.00
2022-08-17T21:19:22.151Z,97544.59
2022-08-17T21:22:09.724Z,97557.84
2022-08-17T21:24:59.512Z,97566.63
2022-08-17T21:27:46.616Z,97571.47
2022-08-17T21:30:52.047Z,97568.19
2022-08-17T21:33:34.766Z,97564.81
2022-08-17T21:36:28.894Z,97576.66
2022-08-17T21:39:09.420Z,97589.91
2022-08-17T21:41:53.815Z,97596.63
2022-08-17T21:44:36.406Z,97614.28
2022-08-17T21:47:21.894Z,97631.69
2022-08-17T21:49:51.943Z,97641.66
2022-08-17T21:52:29.520Z,97635.69
2022-08-17T21:55:03.390Z,97644.34
2022-08-17T21:57:52.998Z,97651.16
2022-08-17T22:00:36.364Z,97669.69
2022-08-17T22:03:23.854Z,97690.19
2022-08-17T22:05:53.953Z,97696.47
2022-08-17T22:08:28.330Z,97710.94
2022-08-17T22:11:04.600Z,97719.34
2022-08-17T22:13:41.091Z,97725.31
2022-08-17T22:16:29.306Z,97724.56
2022-08-17T22:19:02.039Z,97731.81
2022-08-17T22:21:32.104Z,97744.75
2022-08-17T22:24:08.812Z,97756.16
2022-08-17T22:27:03.380Z,97761.84
2022-08-17T22:30:03.076Z,97768.53
2022-08-17T22:32:40.924Z,97776.78
2022-08-17T22:35:40.826Z,97778.63
2022-08-17T22:38:34.915Z,97789.69
2022-08-17T22:41:40.549Z,97802.03
2022-08-17T22:44:19.755Z,97811.38
2022-08-17T22:47:11.255Z,97822.75
2022-08-17T22:49:53.271Z,97826.31
2022-08-17T22:52:35.549Z,97823.50
2022-08-17T22:55:32.554Z,97826.00
2022-08-17T22:58:16.701Z,97827.53
2022-08-17T23:00:50.014Z,97836.56
2022-08-17T23:03:28.066Z,97840.94
2022-08-17T23:06:09.681Z,97841.16
2022-08-17T23:08:48.436Z,97846.50
2022-08-17T23:11:18.647Z,97846.50
2022-08-17T23:13:48.732Z,97847.25
2022-08-17T23:16:18.900Z,97848.34
2022-08-17T23:18:52.177Z,97844.72
2022-08-17T23:21:24.987Z,97831.22
2022-08-17T23:23:59.159Z,97823.44
2022-08-17T23:26:30.000Z,97833.00
2022-08-17T23:29:02.340Z,97838.97
2022-08-17T23:31:34.655Z,97822.50
2022-08-17T23:34:12.596Z,97823.78
2022-08-17T23:36:52.695Z,97820.81
2022-08-17T23:39:27.951Z,97825.88
2022-08-17T23:41:59.906Z,97834.66
2022-08-17T23:44:31.190Z,97833.47
2022-08-17T23:47:03.665Z,97835.84
2022-08-17T23:49:37.620Z,97836.84
2022-08-17T23:52:12.658Z,97840.47
2022-08-17T23:54:50.919Z,97838.63
2022-08-17T23:57:33.234Z,97827.47
